Flight Track Log - Related Links

Times and Time Zones

All times are in EDT time to prevent confusion due to time zone crossing. See the EJA929 flight status page for this flight to view local times or setup timezone preferences in your user account.

Time Position Orientation Groundspeed Altitude Reporting Facility
EDT Latitude Longitude Course Direction KTS MPH feet Rate Location/Type
Fri 05:10:00 PM 40.8562 -74.2043 273° West  Level FlightAware Approximate
Fri 05:11:00 PM 40.8646 -74.4093 273° West  Level FlightAware Approximate
Fri 05:12:00 PM 40.8726 -74.6143 273° West  Level FlightAware Approximate
Fri 05:13:00 PM 40.8802 -74.8194 273° West  Level FlightAware Approximate
Fri 05:14:00 PM 40.8875 -75.0246 273° West  Level FlightAware Approximate
Fri 05:15:00 PM 40.8945 -75.2298 273° West  Level FlightAware Approximate
Fri 05:16:00 PM 40.9010 -75.4343 272° West  Level FlightAware Approximate
Fri 05:17:00 PM 40.9072 -75.6400 272° West  Level FlightAware Approximate
Fri 05:18:00 PM 40.9131 -75.8458 272° West  Level FlightAware Approximate
Fri 05:19:00 PM 40.9185 -76.0516 272° West  Level FlightAware Approximate
Fri 05:20:00 PM 40.9237 -76.2574 272° West  Level FlightAware Approximate
Fri 05:21:00 PM 40.9284 -76.4632 272° West  Level FlightAware Approximate
Fri 05:22:00 PM 40.9328 -76.6691 272° West  Level FlightAware Approximate
Fri 05:23:00 PM 40.9369 -76.8764 272° West  Level FlightAware Approximate
Fri 05:24:00 PM 40.9405 -77.0837 271° West  Level FlightAware Approximate
Fri 05:25:00 PM 40.9438 -77.2911 271° West  Level FlightAware Approximate
Fri 05:26:00 PM 40.9468 -77.4985 271° West  Level FlightAware Approximate
Fri 05:27:00 PM 40.9493 -77.7059 271° West  Level FlightAware Approximate
Fri 05:28:00 PM 40.9501 -77.9115 270° West  Level FlightAware Approximate
Fri 05:29:00 PM 40.9512 -78.1170 271° West  Level FlightAware Approximate
Fri 05:30:00 PM 40.9546 -78.3225 271° West  Level FlightAware Approximate
Fri 05:31:00 PM 40.9577 -78.5281 271° West  Level FlightAware Approximate
Fri 05:32:00 PM 40.9604 -78.7337 271° West  Level FlightAware Approximate
Fri 05:33:00 PM 40.9627 -78.9393 271° West  Level FlightAware Approximate
Fri 05:34:00 PM 40.9646 -79.1449 271° West  Level FlightAware Approximate
Fri 05:35:00 PM 40.9662 -79.3505 271° West  Level FlightAware Approximate
Fri 05:36:00 PM 40.9656 -79.5654 270° West  Level FlightAware Approximate
Fri 05:37:00 PM 40.9638 -79.7803 269° West  Level FlightAware Approximate
Fri 05:38:00 PM 40.9616 -79.9952 269° West  Level FlightAware Approximate
Fri 05:39:00 PM 40.9590 -80.2101 269° West  Level FlightAware Approximate
Fri 05:40:00 PM 40.9559 -80.4250 269° West  Level FlightAware Approximate
Fri 05:41:00 PM 40.9525 -80.6378 269° West  Level FlightAware Approximate
Fri 05:42:00 PM 40.9502 -80.8547 270° West  Level FlightAware Approximate
Fri 05:43:00 PM 40.9504 -81.0715 270° West  Level FlightAware Approximate
Fri 05:44:00 PM 40.9502 -81.2884 270° West  Level FlightAware Approximate
Fri 05:45:00 PM 40.9455 -81.5051 268° West  Level FlightAware Approximate
Fri 05:46:00 PM 40.9382 -81.7218 268° West  Level FlightAware Approximate
Fri 05:47:00 PM 40.9305 -81.9384 267° West  Level FlightAware Approximate
Fri 05:48:00 PM 40.9224 -82.1549 267° West  Level FlightAware Approximate
Fri 05:49:00 PM 40.9183 -82.3731 272° West  Level FlightAware Approximate
Fri 05:50:00 PM 40.9227 -82.5914 272° West  Level FlightAware Approximate
Fri 05:51:00 PM 40.9268 -82.8098 271° West  Level FlightAware Approximate
Fri 05:52:00 PM 40.9305 -83.0282 271° West  Level FlightAware Approximate
Fri 05:53:00 PM 40.9334 -83.2466 270° West  Level FlightAware Approximate
Fri 05:54:00 PM 40.9334 -83.4650 270° West  Level FlightAware Approximate
Fri 05:55:00 PM 40.9339 -83.6838 270° West  Level FlightAware Approximate
Fri 05:56:00 PM 40.9342 -83.9026 270° West  Level FlightAware Approximate
Fri 05:57:00 PM 40.9341 -84.1214 270° West  Level FlightAware Approximate
Fri 05:58:00 PM 40.9336 -84.3401 270° West  Level FlightAware Approximate
Fri 05:59:00 PM 40.9338 -84.5589 270° West  Level FlightAware Approximate
Fri 06:00:00 PM 40.9341 -84.7775 270° West  Level FlightAware Approximate
Fri 06:01:00 PM 40.9340 -84.9962 270° West  Level FlightAware Approximate
Fri 06:02:00 PM 40.9335 -85.2148 270° West  Level FlightAware Approximate
Fri 06:03:00 PM 40.9336 -85.0999 90° East  Level FlightAware Approximate
Fri 06:04:00 PM 40.9336 -84.8812 90° East  Level FlightAware Approximate
Fri 06:05:00 PM 40.9335 -84.7374 270° West  Level FlightAware Approximate
Fri 06:06:00 PM 40.9342 -84.9560 270° West  Level FlightAware Approximate
Fri 06:07:00 PM 40.9345 -85.1747 270° West  Level FlightAware Approximate
Fri 06:08:00 PM 40.9344 -85.3933 270° West  Level FlightAware Approximate
Fri 06:09:00 PM 40.9339 -85.6155 270° West  Level FlightAware Approximate
Fri 06:10:00 PM 40.9319 -85.8377 269° West  Level FlightAware Approximate
Fri 06:11:00 PM 40.9281 -86.0598 269° West  Level FlightAware Approximate
Fri 06:12:00 PM 40.9239 -86.2819 269° West  Level FlightAware Approximate
Fri 06:13:00 PM 40.9192 -86.5040 268° West  Level FlightAware Approximate
Fri 06:14:00 PM 40.9132 -86.7259 268° West  Level FlightAware Approximate
Fri 06:15:00 PM 40.9059 -86.9478 268° West  Level FlightAware Approximate
Fri 06:16:00 PM 40.8982 -87.1697 267° West  Level FlightAware Approximate
Fri 06:17:00 PM 40.8901 -87.3915 267° West  Level FlightAware Approximate
Fri 06:18:00 PM 40.8845 -87.5201 88° East  Level FlightAware Approximate
Fri 06:19:00 PM 40.8901 -87.2982 88° East  Level FlightAware Approximate
Fri 06:20:00 PM 40.8863 -87.5575 269° West  Level FlightAware Approximate
Fri 06:21:00 PM 40.8785 -87.8165 266° West  Level FlightAware Approximate
Fri 06:22:00 PM 40.8648 -88.0751 268° West  Level FlightAware Approximate
Fri 06:23:00 PM 40.8559 -88.3340 268° West  Level FlightAware Approximate
Fri 06:24:00 PM 40.8466 -88.5929 267° West  Level FlightAware Approximate
Fri 06:25:00 PM 40.8366 -88.8517 267° West  Level FlightAware Approximate
Fri 06:26:00 PM 40.8291 -89.1106 268° West  Level FlightAware Approximate
Fri 06:27:00 PM 40.8202 -89.3695 267° West  Level FlightAware Approximate
Fri 06:28:00 PM 40.8106 -89.6282 267° West  Level FlightAware Approximate
Fri 06:29:00 PM 40.8005 -89.8869 267° West  Level FlightAware Approximate
Fri 06:30:00 PM 40.7876 -90.1453 266° West  Level FlightAware Approximate
Fri 06:31:00 PM 40.7740 -90.4036 266° West  Level FlightAware Approximate
Fri 06:32:00 PM 40.7598 -90.6617 266° West  Level FlightAware Approximate
Fri 06:33:00 PM 40.7444 -90.9198 265° West  Level FlightAware Approximate
Fri 06:34:00 PM 40.7273 -91.1775 265° West  Level FlightAware Approximate
Fri 06:35:00 PM 40.7039 -91.4353 261° West  Level FlightAware Approximate
Fri 06:36:00 PM 40.6878 -91.6940 266° West  Level FlightAware Approximate
Fri 06:37:00 PM 40.6733 -91.9530 266° West  Level FlightAware Approximate
Fri 06:38:00 PM 40.6583 -92.2118 266° West  Level FlightAware Approximate
Fri 06:39:00 PM 40.6382 -92.4699 263° West  Level FlightAware Approximate
Fri 06:40:00 PM 40.6125 -92.7271 263° West  Level FlightAware Approximate
Fri 06:41:00 PM 40.5897 -92.9847 264° West  Level FlightAware Approximate
Fri 06:42:00 PM 40.5694 -93.2425 264° West  Level FlightAware Approximate
Fri 06:43:00 PM 40.5488 -93.5003 265° West  Level FlightAware Approximate
Fri 06:44:00 PM 40.5309 -93.7583 265° West  Level FlightAware Approximate
Fri 06:45:00 PM 40.5123 -94.0162 265° West  Level FlightAware Approximate
Fri 06:46:00 PM 40.4918 -94.2737 263° West  Level FlightAware Approximate
Fri 06:47:00 PM 40.4682 -94.5307 263° West  Level FlightAware Approximate
Fri 06:48:00 PM 40.4441 -94.7876 263° West  Level FlightAware Approximate
Fri 06:49:00 PM 40.4193 -95.0442 263° West  Level FlightAware Approximate
Fri 06:50:00 PM 40.3940 -95.3007 263° West  Level FlightAware Approximate
Fri 06:51:00 PM 40.3681 -95.5569 263° West  Level FlightAware Approximate
Fri 06:52:00 PM 40.3419 -95.8130 262° West  Level FlightAware Approximate
Fri 06:53:00 PM 40.3156 -96.0690 262° West  Level FlightAware Approximate
Fri 06:54:00 PM 40.2887 -96.3247 262° West  Level FlightAware Approximate
Fri 06:55:00 PM 40.2612 -96.5803 262° West  Level FlightAware Approximate
Fri 06:56:00 PM 40.2332 -96.8356 262° West  Level FlightAware Approximate
Fri 06:57:00 PM 40.2046 -97.0908 262° West  Level FlightAware Approximate
Fri 06:58:00 PM 40.1756 -97.3457 262° West  Level FlightAware Approximate
Fri 06:59:00 PM 40.1460 -97.6005 261° West  Level FlightAware Approximate
Fri 07:00:00 PM 40.1159 -97.8550 261° West  Level FlightAware Approximate
Fri 07:01:00 PM 40.0853 -98.1093 261° West  Level FlightAware Approximate
Fri 07:02:00 PM 40.0540 -98.3633 261° West  Level FlightAware Approximate
Fri 07:03:00 PM 40.0222 -98.6171 261° West  Level FlightAware Approximate
Fri 07:04:00 PM 39.9899 -98.8707 261° West  Level FlightAware Approximate
Fri 07:05:00 PM 39.9566 -99.1239 260° West  Level FlightAware Approximate
Fri 07:06:00 PM 39.9216 -99.3767 260° West  Level FlightAware Approximate
Fri 07:07:00 PM 39.8861 -99.6291 260° West  Level FlightAware Approximate
Fri 07:08:00 PM 39.8501 -99.8813 260° West  Level FlightAware Approximate
Fri 07:09:00 PM 39.8135 -100.1333 259° West  Level FlightAware Approximate
Fri 07:10:00 PM 39.7764 -100.3850 259° West  Level FlightAware Approximate
Fri 07:11:00 PM 39.7410 -100.6369 260° West  Level FlightAware Approximate
Fri 07:12:00 PM 39.7059 -100.8888 260° West  Level FlightAware Approximate
Fri 07:13:00 PM 39.6703 -101.1405 260° West  Level FlightAware Approximate
Fri 07:14:00 PM 39.6341 -101.3919 259° West  Level FlightAware Approximate
Fri 07:15:00 PM 39.5974 -101.6430 259° West  Level FlightAware Approximate
Fri 07:16:00 PM 39.5596 -101.8937 258° West  Level FlightAware Approximate
Fri 07:17:00 PM 39.5187 -102.1435 258° West  Level FlightAware Approximate
Fri 07:18:00 PM 39.4772 -102.3930 258° West  Level FlightAware Approximate
Fri 07:19:00 PM 39.4352 -102.6421 258° West  Level FlightAware Approximate
Fri 07:20:00 PM 39.3929 -102.8899 258° West  Level FlightAware Approximate
Fri 07:21:00 PM 39.3501 -103.1375 257° West  Level FlightAware Approximate
Fri 07:22:00 PM 39.3148 -103.3858 257° West  Level FlightAware Approximate
Fri 07:23:00 PM 39.2691 -103.6322 256° West  Level FlightAware Approximate
Fri 07:24:00 PM 39.2245 -103.8776 253° West  Level FlightAware Approximate
Fri 07:24:05 PM 38.6114 -105.8856 247° West 283 326 15,800  Level Denver Center
Fri 07:25:00 PM 39.1821 -104.1241 258° West  Level FlightAware Approximate
Fri 07:25:07 PM 38.5806 -105.9569 241° Southwest 278 320 15,400  Level Denver Center
Fri 07:26:00 PM 39.1436 -104.3718 258° West  Level FlightAware Approximate
Fri 07:27:00 PM 39.0955 -104.6166 257° West  Level FlightAware Approximate
Fri 07:27:00 PM 38.8000 -106.1167 312° West  Level FlightAware Approximate
Fri 07:28:00 PM 39.0323 -104.8541 252° West  Level FlightAware Approximate
Fri 07:29:00 PM 38.9459 -105.0791 247° West  Level FlightAware Approximate
Fri 07:34:00 PM 38.8142 -106.1206 312° West  Level Estimated
Fri 07:35:00 PM 38.8142 -106.1206 312° West  Level Estimated
Fri 07:36:00 PM 38.8142 -106.1206 312° West  Level Estimated
Fri 07:37:00 PM 38.8142 -106.1206 312° West  Level Estimated
Fri 07:38:00 PM 38.8142 -106.1206 312° West  Level Estimated
Fri 07:39:00 PM 38.8142 -106.1206 312° West  Level Estimated

Login

Don't have an account? Register now (free) for customized features, flight alerts, and more!